Time;durP1;ratioP1;P1;durP2;ratioP2;P2;SDS_P1;SDS_P2;PMS_P1;PMS_P2;Temp;Humidity;BMP_temperature;BMP_pressure;BME280_temperature;BME280_humidity;BME280_pressure;Samples;Min_cycle;Max_cycle;Signal;HPM_P1;HPM_P2
2021/03/23 00:00:12;;;;;;;12.52;8.45;;;11.10;53.00;;;;;;2068705;28;20037;-58
2021/03/23 00:01:33;;;;;;;14.82;9.05;;;11.10;53.10;;;;;;2065469;28;20374;-59
2021/03/23 00:02:57;;;;;;;11.68;8.70;;;11.10;52.90;;;;;;2064519;28;20485;-59
2021/03/23 00:04:18;;;;;;;10.10;8.20;;;11.00;53.00;;;;;;2069233;28;20038;-59
2021/03/23 00:05:39;;;;;;;11.25;9.18;;;11.00;52.90;;;;;;2064797;28;20045;-58
2021/03/23 00:07:00;;;;;;;11.40;9.13;;;11.00;53.00;;;;;;2060101;28;20113;-58
2021/03/23 00:08:28;;;;;;;13.25;9.38;;;10.90;53.00;;;;;;2065001;28;20035;-59
2021/03/23 00:09:48;;;;;;;12.13;9.15;;;10.90;53.10;;;;;;2054673;28;20035;-59
2021/03/23 00:11:31;;;;;;;11.65;9.27;;;10.90;53.00;;;;;;2061914;28;20023;-58
2021/03/23 00:12:53;;;;;;;11.63;8.80;;;10.90;53.20;;;;;;2063492;28;20027;-58
2021/03/23 00:14:14;;;;;;;13.10;8.75;;;10.80;53.10;;;;;;2064602;28;20048;-60
2021/03/23 00:15:35;;;;;;;10.40;8.82;;;10.80;53.10;;;;;;2058870;28;20164;-58
2021/03/23 00:16:56;;;;;;;10.88;8.70;;;10.80;53.20;;;;;;2065254;28;20031;-59
2021/03/23 00:18:18;;;;;;;11.63;8.30;;;10.70;53.10;;;;;;2064326;28;20030;-59
2021/03/23 00:19:38;;;;;;;11.35;9.15;;;10.70;53.70;;;;;;2065287;28;20036;-58
2021/03/23 00:21:00;;;;;;;14.40;9.55;;;10.70;53.20;;;;;;2064328;28;20070;-58
2021/03/23 00:22:21;;;;;;;10.60;9.15;;;10.70;53.30;;;;;;2065772;28;20041;-59
2021/03/23 00:23:42;;;;;;;11.80;9.15;;;10.60;53.30;;;;;;2063696;28;20046;-59
2021/03/23 00:25:05;;;;;;;13.63;9.65;;;10.60;53.40;;;;;;2063938;28;20034;-60
2021/03/23 00:26:27;;;;;;;12.68;9.32;;;10.60;53.50;;;;;;2065618;28;20143;-59
2021/03/23 00:27:48;;;;;;;13.20;9.88;;;10.60;53.50;;;;;;2065401;28;20034;-60
2021/03/23 00:29:11;;;;;;;12.07;9.93;;;10.50;53.50;;;;;;2064026;28;20369;-59
2021/03/23 00:30:32;;;;;;;12.82;10.15;;;10.50;53.60;;;;;;2064261;28;20077;-59
2021/03/23 00:31:53;;;;;;;14.32;10.13;;;10.50;53.60;;;;;;2066064;28;20033;-59
2021/03/23 00:33:14;;;;;;;14.38;10.85;;;10.50;53.60;;;;;;2061105;28;20116;-59
2021/03/23 00:34:34;;;;;;;15.80;11.60;;;10.40;53.60;;;;;;2065647;28;20047;-59
2021/03/23 00:36:01;;;;;;;15.02;10.75;;;10.40;53.70;;;;;;2056317;28;20031;-59
2021/03/23 00:37:22;;;;;;;20.80;13.00;;;10.40;53.90;;;;;;2062619;28;20030;-58
2021/03/23 00:38:43;;;;;;;23.60;14.13;;;10.40;53.80;;;;;;2062268;28;20053;-59
2021/03/23 00:40:09;;;;;;;20.20;13.18;;;10.30;53.80;;;;;;2064160;28;20030;-59
2021/03/23 00:41:36;;;;;;;20.05;13.27;;;10.30;53.90;;;;;;2061192;28;20128;-59
2021/03/23 00:42:57;;;;;;;22.52;13.38;;;10.30;54.00;;;;;;2066527;28;20035;-59
2021/03/23 00:44:19;;;;;;;21.33;14.02;;;10.30;53.80;;;;;;2066804;28;20097;-58
2021/03/23 00:45:42;;;;;;;18.13;12.90;;;10.20;53.70;;;;;;2065921;28;20026;-58
2021/03/23 00:47:03;;;;;;;17.08;12.55;;;10.20;53.90;;;;;;2068497;28;20026;-59
2021/03/23 00:48:24;;;;;;;21.67;13.10;;;10.20;53.90;;;;;;2065660;28;20031;-59
2021/03/23 00:49:45;;;;;;;16.88;12.55;;;10.20;54.00;;;;;;2049655;28;20046;-58
2021/03/23 00:51:06;;;;;;;16.25;11.52;;;10.10;54.10;;;;;;2060685;28;20073;-58
2021/03/23 00:52:27;;;;;;;20.67;13.88;;;10.10;54.10;;;;;;2063554;28;20125;-61
2021/03/23 00:53:48;;;;;;;23.17;14.25;;;10.10;54.20;;;;;;2064173;28;20121;-59
2021/03/23 00:55:10;;;;;;;21.00;14.02;;;10.10;54.30;;;;;;2062738;28;20038;-59
2021/03/23 00:56:30;;;;;;;21.42;14.55;;;10.10;54.40;;;;;;2056886;28;20026;-59
2021/03/23 00:57:51;;;;;;;21.65;14.55;;;10.00;54.40;;;;;;2055724;28;20185;-60
2021/03/23 00:59:12;;;;;;;22.23;14.82;;;10.00;54.40;;;;;;2066966;28;20041;-59
2021/03/23 01:00:33;;;;;;;23.13;14.70;;;10.00;54.50;;;;;;2064692;28;20042;-58
2021/03/23 01:01:54;;;;;;;19.38;13.68;;;10.00;54.60;;;;;;2064493;28;20445;-59
2021/03/23 01:03:15;;;;;;;20.73;14.10;;;10.00;54.60;;;;;;2063363;28;20034;-59
2021/03/23 01:04:36;;;;;;;18.52;12.48;;;10.00;54.80;;;;;;2064325;28;20347;-58
2021/03/23 01:05:57;;;;;;;18.45;13.10;;;10.00;54.80;;;;;;2064045;28;20042;-59
2021/03/23 01:07:18;;;;;;;17.90;11.63;;;10.00;54.90;;;;;;2063134;28;20042;-58
2021/03/23 01:08:39;;;;;;;17.33;11.93;;;10.00;54.90;;;;;;2060247;28;20035;-58
2021/03/23 01:10:00;;;;;;;17.40;12.20;;;10.00;55.00;;;;;;2063468;28;20491;-59
2021/03/23 01:11:21;;;;;;;19.35;12.80;;;10.00;55.10;;;;;;2054823;28;20031;-59
2021/03/23 01:12:42;;;;;;;17.45;12.50;;;10.00;55.10;;;;;;2060402;28;20030;-59
2021/03/23 01:14:03;;;;;;;18.42;13.27;;;10.00;55.20;;;;;;2065687;28;20030;-60
2021/03/23 01:15:31;;;;;;;17.38;12.32;;;10.00;55.30;;;;;;2062912;28;20033;-59
2021/03/23 01:16:52;;;;;;;18.15;13.32;;;10.00;55.50;;;;;;2066841;28;20501;-60
2021/03/23 01:18:13;;;;;;;19.23;13.85;;;10.10;55.30;;;;;;2067591;28;21886;-58
2021/03/23 01:19:34;;;;;;;19.02;13.95;;;10.10;55.40;;;;;;2059726;28;20038;-59
2021/03/23 01:20:55;;;;;;;19.73;14.63;;;10.10;55.40;;;;;;2064694;28;20027;-59
2021/03/23 01:22:16;;;;;;;20.27;14.25;;;10.10;55.30;;;;;;2062657;28;20385;-60
2021/03/23 01:23:37;;;;;;;17.92;13.77;;;10.10;55.30;;;;;;2058767;28;20043;-59
2021/03/23 01:24:58;;;;;;;21.08;13.90;;;10.10;55.30;;;;;;2064181;28;20478;-59
2021/03/23 01:26:19;;;;;;;18.95;13.50;;;10.10;55.40;;;;;;2065606;28;20113;-59
2021/03/23 01:27:40;;;;;;;17.27;13.18;;;10.10;55.40;;;;;;2063918;28;20033;-59
2021/03/23 01:29:01;;;;;;;20.38;14.07;;;10.20;55.50;;;;;;2064288;28;20067;-59
2021/03/23 01:30:24;;;;;;;19.77;14.50;;;10.20;55.50;;;;;;2064320;28;20077;-60
2021/03/23 01:31:45;;;;;;;20.67;14.93;;;10.20;55.60;;;;;;2055729;28;20147;-59
2021/03/23 01:33:06;;;;;;;21.02;15.40;;;10.20;55.50;;;;;;2057042;28;20054;-59
2021/03/23 01:34:27;;;;;;;21.38;15.13;;;10.20;55.40;;;;;;2065333;28;20039;-58
2021/03/23 01:35:48;;;;;;;21.48;15.32;;;10.20;55.40;;;;;;2062511;28;20061;-58
2021/03/23 01:37:09;;;;;;;21.98;14.65;;;10.20;55.40;;;;;;2055077;28;20611;-59
2021/03/23 01:38:30;;;;;;;20.58;15.20;;;10.20;55.40;;;;;;2062074;28;20042;-59
2021/03/23 01:39:51;;;;;;;21.05;14.82;;;10.20;55.50;;;;;;2059005;28;20446;-58
2021/03/23 01:41:12;;;;;;;21.92;15.75;;;10.20;55.60;;;;;;2064520;28;20030;-59
2021/03/23 01:42:48;;;;;;;22.40;15.50;;;10.20;55.50;;;;;;2063192;28;20104;-58
2021/03/23 01:44:09;;;;;;;22.85;15.35;;;10.30;55.70;;;;;;2064199;28;20022;-59
2021/03/23 01:45:41;;;;;;;21.58;15.93;;;10.30;55.60;;;;;;2064942;28;20031;-59
2021/03/23 01:47:02;;;;;;;24.90;16.05;;;10.30;55.70;;;;;;2062692;28;20126;-59
2021/03/23 01:48:25;;;;;;;23.27;16.25;;;10.30;55.40;;;;;;2056989;28;20085;-58
2021/03/23 01:49:46;;;;;;;27.73;16.92;;;10.30;55.40;;;;;;2060657;28;20026;-59
2021/03/23 01:51:07;;;;;;;22.90;16.30;;;10.30;55.50;;;;;;2065591;28;20037;-59
2021/03/23 01:52:29;;;;;;;23.60;16.08;;;10.30;55.40;;;;;;2064171;28;20530;-59
2021/03/23 01:53:54;;;;;;;23.35;17.05;;;10.30;55.40;;;;;;2061380;28;20368;-59
2021/03/23 01:55:15;;;;;;;21.95;16.13;;;10.30;55.40;;;;;;2065893;28;20454;-58
2021/03/23 01:56:37;;;;;;;21.85;15.95;;;10.30;55.40;;;;;;2057267;28;20034;-58
2021/03/23 01:57:58;;;;;;;24.95;17.25;;;10.30;55.40;;;;;;2063258;28;20081;-59
2021/03/23 01:59:22;;;;;;;25.08;16.75;;;10.30;55.30;;;;;;2063715;28;20042;-59
2021/03/23 02:00:48;;;;;;;23.80;16.83;;;10.40;55.30;;;;;;2064886;28;20401;-58
2021/03/23 02:02:08;;;;;;;23.23;16.23;;;10.40;55.40;;;;;;2069065;28;20045;-59
2021/03/23 02:03:29;;;;;;;22.90;16.25;;;10.40;55.30;;;;;;2062455;28;20030;-59
2021/03/23 02:04:50;;;;;;;23.20;17.20;;;10.40;55.30;;;;;;2069624;28;20482;-59
2021/03/23 02:06:38;;;;;;;26.77;18.25;;;10.40;55.30;;;;;;2063614;28;20090;-59
2021/03/23 02:08:01;;;;;;;23.30;16.40;;;10.40;55.50;;;;;;2062727;28;20062;-59
2021/03/23 02:09:26;;;;;;;24.05;16.98;;;10.40;55.20;;;;;;2063753;28;20026;-60
2021/03/23 02:10:48;;;;;;;22.77;15.75;;;10.40;55.20;;;;;;2059382;28;20342;-59
2021/03/23 02:12:17;;;;;;;22.75;16.58;;;10.40;55.20;;;;;;2064385;28;20457;-60
2021/03/23 02:13:39;;;;;;;22.73;16.98;;;10.40;55.30;;;;;;2063679;28;20042;-60
2021/03/23 02:15:00;;;;;;;23.13;15.88;;;10.40;55.20;;;;;;2055097;28;20031;-59
2021/03/23 02:16:21;;;;;;;21.80;16.17;;;10.40;55.20;;;;;;2048879;28;20058;-58
2021/03/23 02:17:42;;;;;;;22.52;16.83;;;10.40;55.30;;;;;;2059227;28;20191;-58
2021/03/23 02:19:04;;;;;;;23.02;15.88;;;10.40;55.30;;;;;;2063151;28;20104;-58
2021/03/23 02:20:25;;;;;;;23.98;16.65;;;10.40;55.30;;;;;;2064222;28;20153;-59
2021/03/23 02:21:46;;;;;;;22.42;16.42;;;10.40;55.30;;;;;;2053988;28;20100;-58
2021/03/23 02:23:09;;;;;;;21.45;16.75;;;10.40;55.50;;;;;;2059178;28;20038;-60
2021/03/23 02:24:30;;;;;;;20.75;15.95;;;10.40;55.50;;;;;;2057279;28;20090;-58
2021/03/23 02:25:51;;;;;;;22.63;17.20;;;10.40;55.50;;;;;;2063345;28;20381;-58
2021/03/23 02:27:12;;;;;;;22.20;16.63;;;10.40;55.50;;;;;;2062974;28;20144;-59
2021/03/23 02:28:51;;;;;;;24.38;17.02;;;10.50;55.60;;;;;;2063743;28;20391;-59
2021/03/23 02:30:28;;;;;;;24.70;16.98;;;10.40;55.80;;;;;;2065595;28;20370;-58
2021/03/23 02:31:51;;;;;;;22.33;16.52;;;10.50;55.80;;;;;;2062527;28;20129;-59
2021/03/23 02:33:12;;;;;;;21.60;16.02;;;10.50;55.60;;;;;;2069019;28;20061;-59
2021/03/23 02:34:33;;;;;;;22.63;16.08;;;10.50;55.60;;;;;;2065467;28;20062;-58
2021/03/23 02:35:54;;;;;;;23.45;16.08;;;10.50;55.50;;;;;;2062259;28;20041;-59
2021/03/23 02:37:16;;;;;;;22.13;16.23;;;10.50;55.50;;;;;;2065801;28;20066;-59
2021/03/23 02:38:37;;;;;;;23.75;16.33;;;10.50;55.60;;;;;;2065099;28;20030;-58
2021/03/23 02:39:58;;;;;;;22.55;16.02;;;10.50;55.50;;;;;;2069415;28;20353;-59
2021/03/23 02:41:19;;;;;;;21.92;16.27;;;10.60;55.60;;;;;;2062704;28;20469;-59
2021/03/23 02:42:40;;;;;;;21.40;15.68;;;10.60;55.60;;;;;;2062390;28;20479;-59
2021/03/23 02:44:01;;;;;;;20.90;15.10;;;10.60;55.70;;;;;;2068387;28;20030;-59
2021/03/23 02:45:23;;;;;;;21.92;15.57;;;10.60;55.70;;;;;;2071200;28;20025;-59
2021/03/23 02:46:44;;;;;;;22.48;17.23;;;10.60;55.70;;;;;;2060438;28;20018;-58
2021/03/23 02:48:05;;;;;;;24.48;17.73;;;10.60;55.60;;;;;;2065645;28;20033;-58
2021/03/23 02:49:26;;;;;;;26.23;18.02;;;10.60;55.60;;;;;;2064913;28;20080;-59
2021/03/23 02:50:47;;;;;;;24.20;17.38;;;10.60;55.60;;;;;;2063859;28;20038;-59
2021/03/23 02:52:09;;;;;;;23.63;17.17;;;10.60;55.50;;;;;;2072094;28;20493;-59
2021/03/23 02:53:30;;;;;;;23.95;16.67;;;10.60;55.40;;;;;;2062556;28;20458;-59
2021/03/23 02:54:51;;;;;;;22.33;15.98;;;10.60;55.30;;;;;;2055978;28;20023;-59
2021/03/23 02:56:13;;;;;;;20.45;15.40;;;10.60;55.30;;;;;;2064609;28;20089;-58
2021/03/23 02:57:33;;;;;;;23.08;15.35;;;10.60;55.30;;;;;;2064237;28;20112;-58
2021/03/23 02:58:55;;;;;;;23.63;16.48;;;10.60;55.20;;;;;;2064095;28;20165;-58
2021/03/23 03:00:17;;;;;;;21.77;16.05;;;10.60;55.10;;;;;;2069326;28;20041;-59
2021/03/23 03:01:38;;;;;;;19.63;15.35;;;10.60;55.10;;;;;;2061034;28;20038;-59
2021/03/23 03:02:59;;;;;;;22.65;16.15;;;10.60;55.10;;;;;;2070508;28;20038;-58
2021/03/23 03:04:20;;;;;;;22.92;15.82;;;10.60;55.00;;;;;;2065971;28;20034;-60
2021/03/23 03:05:41;;;;;;;22.23;16.10;;;10.60;55.00;;;;;;2066583;28;20037;-60
2021/03/23 03:07:02;;;;;;;23.25;15.93;;;10.60;55.00;;;;;;2068490;28;20030;-58
2021/03/23 03:08:24;;;;;;;23.65;17.02;;;10.60;55.10;;;;;;2071786;28;20469;-60
2021/03/23 03:09:45;;;;;;;23.10;16.55;;;10.60;55.10;;;;;;2064690;28;20034;-60
2021/03/23 03:11:07;;;;;;;25.02;15.82;;;10.60;55.20;;;;;;2068738;28;20540;-59
2021/03/23 03:12:28;;;;;;;22.17;16.67;;;10.60;55.10;;;;;;2064765;28;20042;-59
2021/03/23 03:13:48;;;;;;;22.88;17.10;;;10.60;55.10;;;;;;2062545;28;20043;-59
2021/03/23 03:15:10;;;;;;;25.23;16.70;;;10.60;55.20;;;;;;2063007;28;20034;-60
2021/03/23 03:16:31;;;;;;;22.48;16.67;;;10.60;55.20;;;;;;2058858;28;20038;-59
2021/03/23 03:17:52;;;;;;;23.15;16.83;;;10.50;55.00;;;;;;2062109;28;20370;-59
2021/03/23 03:19:14;;;;;;;24.05;16.27;;;10.50;55.00;;;;;;2065798;28;20484;-60
2021/03/23 03:20:35;;;;;;;23.45;17.20;;;10.60;55.00;;;;;;2063052;28;20102;-60
2021/03/23 03:21:55;;;;;;;23.05;16.67;;;10.60;55.00;;;;;;2065445;28;20101;-59
2021/03/23 03:23:17;;;;;;;23.38;16.58;;;10.60;55.00;;;;;;2066683;28;20038;-60
2021/03/23 03:24:37;;;;;;;23.35;16.90;;;10.60;55.00;;;;;;2063692;28;20046;-59
2021/03/23 03:25:58;;;;;;;22.92;16.65;;;10.60;54.90;;;;;;2066069;28;20732;-59
2021/03/23 03:27:19;;;;;;;24.13;17.20;;;10.60;54.90;;;;;;2064638;28;20085;-59
2021/03/23 03:28:49;;;;;;;24.45;17.17;;;10.60;54.90;;;;;;2062899;28;20370;-59
2021/03/23 03:30:27;;;;;;;23.75;16.33;;;10.60;55.00;;;;;;2064270;28;20077;-59
2021/03/23 03:31:48;;;;;;;24.30;17.27;;;10.60;55.10;;;;;;2061229;28;20034;-59
2021/03/23 03:33:12;;;;;;;24.13;17.02;;;10.60;55.00;;;;;;2062791;28;20518;-58
2021/03/23 03:34:33;;;;;;;24.42;17.42;;;10.60;55.00;;;;;;2065493;28;20038;-59
2021/03/23 03:35:54;;;;;;;24.17;17.95;;;10.50;54.90;;;;;;2060541;28;20046;-59
2021/03/23 03:37:15;;;;;;;23.80;16.98;;;10.60;55.00;;;;;;2064498;28;20113;-59
2021/03/23 03:38:36;;;;;;;24.55;16.85;;;10.60;55.00;;;;;;2060915;28;20527;-59
2021/03/23 03:39:57;;;;;;;22.83;17.40;;;10.60;55.00;;;;;;2063194;28;20076;-59
2021/03/23 03:41:18;;;;;;;21.48;16.80;;;10.60;55.00;;;;;;2065121;28;20129;-58
2021/03/23 03:42:39;;;;;;;24.88;16.98;;;10.60;55.00;;;;;;2060587;28;20074;-59
2021/03/23 03:44:00;;;;;;;23.58;16.90;;;10.60;55.00;;;;;;2061323;28;20040;-59
2021/03/23 03:45:23;;;;;;;24.58;16.83;;;10.60;55.00;;;;;;2064922;28;20030;-59
2021/03/23 03:46:44;;;;;;;24.25;17.23;;;10.60;55.10;;;;;;2060821;28;20361;-59
2021/03/23 03:48:06;;;;;;;24.75;16.58;;;10.60;55.00;;;;;;2056826;28;20101;-59
2021/03/23 03:49:27;;;;;;;25.67;17.92;;;10.60;55.00;;;;;;2062579;28;20034;-58
2021/03/23 03:50:48;;;;;;;24.38;18.08;;;10.50;55.00;;;;;;2066724;28;20511;-58
2021/03/23 03:52:09;;;;;;;22.77;17.13;;;10.50;55.00;;;;;;2064552;28;20026;-59
2021/03/23 03:53:31;;;;;;;26.25;18.23;;;10.50;55.00;;;;;;2058947;28;20404;-59
2021/03/23 03:54:51;;;;;;;24.83;17.55;;;10.50;55.00;;;;;;2064159;28;20042;-58
2021/03/23 03:56:12;;;;;;;26.73;18.42;;;10.50;55.00;;;;;;2066288;28;20155;-58
2021/03/23 03:57:33;;;;;;;25.25;17.45;;;10.50;55.00;;;;;;2066117;28;20461;-58
2021/03/23 03:58:56;;;;;;;24.52;17.25;;;10.50;55.00;;;;;;2064355;28;20033;-59
2021/03/23 04:00:20;;;;;;;24.73;17.83;;;10.50;55.00;;;;;;2064616;28;20026;-59
2021/03/23 04:01:41;;;;;;;23.67;17.05;;;10.50;55.10;;;;;;2065529;28;20042;-59
2021/03/23 04:03:09;;;;;;;26.30;19.25;;;10.50;55.10;;;;;;2065698;28;20037;-58
2021/03/23 04:04:30;;;;;;;24.80;18.48;;;10.50;55.00;;;;;;2060618;28;20324;-59
2021/03/23 04:05:53;;;;;;;23.38;16.45;;;10.50;55.00;;;;;;2060008;28;20030;-58
2021/03/23 04:07:14;;;;;;;23.95;17.45;;;10.50;55.00;;;;;;2064104;28;20030;-58
2021/03/23 04:08:37;;;;;;;26.90;19.05;;;10.50;55.10;;;;;;2059162;28;20046;-60
2021/03/23 04:09:58;;;;;;;23.48;17.10;;;10.50;55.10;;;;;;2063785;28;20392;-59
2021/03/23 04:11:19;;;;;;;23.45;17.48;;;10.40;55.10;;;;;;2064763;28;20049;-58
2021/03/23 04:12:40;;;;;;;23.88;17.17;;;10.50;55.10;;;;;;2064267;28;20022;-58
2021/03/23 04:14:02;;;;;;;25.95;17.73;;;10.40;55.10;;;;;;2064953;28;20037;-58
2021/03/23 04:15:35;;;;;;;24.33;17.02;;;10.50;55.20;;;;;;2063383;28;20048;-60
2021/03/23 04:16:56;;;;;;;25.95;17.10;;;10.50;55.30;;;;;;2066378;28;20049;-60
2021/03/23 04:18:21;;;;;;;24.77;16.80;;;10.50;55.20;;;;;;2063354;28;20081;-58
2021/03/23 04:19:42;;;;;;;24.08;16.88;;;10.40;55.20;;;;;;2065241;28;20037;-59
2021/03/23 04:21:05;;;;;;;30.98;19.75;;;10.50;55.30;;;;;;2064593;28;20041;-58
2021/03/23 04:22:26;;;;;;;29.15;18.85;;;10.40;55.20;;;;;;2064136;28;20092;-58
2021/03/23 04:23:46;;;;;;;29.00;19.35;;;10.50;55.30;;;;;;2060941;28;20100;-59
2021/03/23 04:25:09;;;;;;;25.55;17.75;;;10.40;55.30;;;;;;2067877;28;20556;-59
2021/03/23 04:26:30;;;;;;;26.30;18.00;;;10.40;55.30;;;;;;2063741;28;20465;-59
2021/03/23 04:27:51;;;;;;;27.70;19.92;;;10.50;55.30;;;;;;2062543;28;20038;-59
2021/03/23 04:29:12;;;;;;;28.17;17.92;;;10.50;55.40;;;;;;2059855;28;20062;-59
2021/03/23 04:30:33;;;;;;;26.70;17.05;;;10.40;55.30;;;;;;2059439;28;20183;-59
2021/03/23 04:31:54;;;;;;;28.90;19.23;;;10.50;55.40;;;;;;2065780;28;20334;-60
2021/03/23 04:33:16;;;;;;;21.85;16.20;;;10.50;55.40;;;;;;2063054;28;20033;-59
2021/03/23 04:34:37;;;;;;;23.85;15.88;;;10.50;55.30;;;;;;2067064;28;20041;-60
2021/03/23 04:36:01;;;;;;;24.50;16.77;;;10.50;55.20;;;;;;2063718;28;20036;-60
2021/03/23 04:37:22;;;;;;;23.27;16.48;;;10.50;55.20;;;;;;2066615;28;20084;-58
2021/03/23 04:38:43;;;;;;;23.80;17.15;;;10.50;55.20;;;;;;2062202;28;20046;-60
2021/03/23 04:40:04;;;;;;;23.00;16.88;;;10.50;55.10;;;;;;2064637;28;20038;-58
2021/03/23 04:41:25;;;;;;;25.95;17.10;;;10.50;55.10;;;;;;2066480;28;20133;-60
2021/03/23 04:42:47;;;;;;;23.33;16.92;;;10.50;55.60;;;;;;2064088;28;20034;-60
2021/03/23 04:44:08;;;;;;;23.10;16.92;;;10.50;55.10;;;;;;2065936;28;20038;-60
2021/03/23 04:45:29;;;;;;;25.17;17.77;;;10.50;55.00;;;;;;2064177;28;20040;-60
2021/03/23 04:46:50;;;;;;;22.10;16.45;;;10.50;55.00;;;;;;2063671;28;20094;-58
2021/03/23 04:48:11;;;;;;;26.55;17.52;;;10.50;55.60;;;;;;2064775;28;20054;-59
2021/03/23 04:49:32;;;;;;;23.65;16.98;;;10.50;55.10;;;;;;2060685;28;20037;-58
2021/03/23 04:50:53;;;;;;;23.77;17.98;;;10.50;55.10;;;;;;2066129;28;20473;-60
2021/03/23 04:52:14;;;;;;;25.08;18.13;;;10.50;55.00;;;;;;2067374;28;20121;-60
2021/03/23 04:53:38;;;;;;;28.10;18.58;;;10.50;55.00;;;;;;2049910;28;20053;-60
2021/03/23 04:54:59;;;;;;;26.80;19.35;;;10.50;55.00;;;;;;2060641;28;20022;-60
2021/03/23 04:56:21;;;;;;;27.45;19.17;;;10.50;55.00;;;;;;2063713;28;20231;-60
2021/03/23 04:57:43;;;;;;;26.17;19.42;;;10.50;55.00;;;;;;2063324;28;20037;-60
2021/03/23 04:59:05;;;;;;;26.52;18.55;;;10.50;55.00;;;;;;2063202;28;20045;-59
2021/03/23 05:00:26;;;;;;;27.83;19.02;;;10.50;55.00;;;;;;2063185;28;20109;-60
2021/03/23 05:01:47;;;;;;;26.98;19.27;;;10.50;55.00;;;;;;2062422;28;20050;-59
2021/03/23 05:03:16;;;;;;;26.52;17.92;;;10.50;55.00;;;;;;2067400;28;20037;-60
2021/03/23 05:04:37;;;;;;;25.10;17.80;;;10.50;55.10;;;;;;2065964;28;20022;-59
2021/03/23 05:06:08;;;;;;;27.33;18.10;;;10.50;55.00;;;;;;2069517;28;20293;-60
2021/03/23 05:07:29;;;;;;;26.42;18.35;;;10.50;55.10;;;;;;2066903;28;20497;-60
2021/03/23 05:08:51;;;;;;;29.40;18.42;;;10.50;55.10;;;;;;2060856;28;20377;-60
2021/03/23 05:10:12;;;;;;;27.08;18.52;;;10.50;55.10;;;;;;2063940;28;20109;-60
2021/03/23 05:11:34;;;;;;;27.75;19.33;;;10.50;55.20;;;;;;2063585;28;20129;-59
2021/03/23 05:12:55;;;;;;;26.25;18.38;;;10.50;55.30;;;;;;2066042;28;20113;-59
2021/03/23 05:14:16;;;;;;;26.60;18.50;;;10.50;55.30;;;;;;2066383;28;20026;-60
2021/03/23 05:15:37;;;;;;;26.42;19.38;;;10.50;55.30;;;;;;2059832;28;20038;-59
2021/03/23 05:16:58;;;;;;;26.38;18.33;;;10.50;55.30;;;;;;2063359;28;20122;-59
2021/03/23 05:18:18;;;;;;;27.10;19.05;;;10.50;55.30;;;;;;2064161;28;20300;-59
2021/03/23 05:19:39;;;;;;;27.90;19.02;;;10.50;55.30;;;;;;2061524;28;20088;-60
2021/03/23 05:21:01;;;;;;;26.70;18.40;;;10.50;55.20;;;;;;2067742;28;20159;-60
2021/03/23 05:22:22;;;;;;;28.60;18.77;;;10.50;55.30;;;;;;2066444;28;20054;-59
2021/03/23 05:23:43;;;;;;;26.83;18.77;;;10.50;55.30;;;;;;2070725;28;21512;-60
2021/03/23 05:25:04;;;;;;;28.50;19.25;;;10.50;55.30;;;;;;2065400;28;20108;-60
2021/03/23 05:26:26;;;;;;;29.50;18.98;;;10.50;55.30;;;;;;2071471;28;20036;-59
2021/03/23 05:27:47;;;;;;;26.48;18.80;;;10.50;55.30;;;;;;2053217;28;20039;-60
2021/03/23 05:29:08;;;;;;;25.98;18.80;;;10.50;55.30;;;;;;2063378;28;20041;-59
2021/03/23 05:30:29;;;;;;;27.48;18.88;;;10.50;55.30;;;;;;2063434;28;20035;-59
2021/03/23 05:31:49;;;;;;;27.30;18.80;;;10.50;55.30;;;;;;2069085;28;20462;-59
2021/03/23 05:33:12;;;;;;;26.67;18.05;;;10.50;55.40;;;;;;2064216;28;20236;-59
2021/03/23 05:34:33;;;;;;;28.08;18.88;;;10.40;55.30;;;;;;2058819;28;20023;-60
2021/03/23 05:35:57;;;;;;;26.85;19.05;;;10.40;55.20;;;;;;2060821;28;20022;-59
2021/03/23 05:37:18;;;;;;;23.77;17.95;;;10.40;55.30;;;;;;2062801;28;20092;-59
2021/03/23 05:38:38;;;;;;;29.40;19.00;;;10.40;55.30;;;;;;2059495;28;20430;-59
2021/03/23 05:39:59;;;;;;;31.02;20.52;;;10.50;55.30;;;;;;2062406;28;20105;-59
2021/03/23 05:41:41;;;;;;;29.02;19.08;;;10.50;55.30;;;;;;2061792;28;20384;-59
2021/03/23 05:43:25;;;;;;;29.08;18.08;;;10.50;55.40;;;;;;2063791;28;20050;-60
2021/03/23 05:45:18;;;;;;;26.27;18.98;;;10.50;55.40;;;;;;2062573;28;20036;-59
2021/03/23 05:46:40;;;;;;;26.42;18.23;;;10.40;55.40;;;;;;2061291;28;20034;-59
2021/03/23 05:48:20;;;;;;;26.60;18.73;;;10.50;55.30;;;;;;2064320;28;20039;-59
2021/03/23 05:49:54;;;;;;;27.30;18.73;;;10.50;55.30;;;;;;2063234;28;20048;-59
2021/03/23 05:51:24;;;;;;;25.00;18.08;;;10.50;55.30;;;;;;2064159;28;20034;-59
2021/03/23 05:52:59;;;;;;;29.60;18.70;;;10.50;55.20;;;;;;2064274;28;20098;-59
2021/03/23 05:54:23;;;;;;;29.27;18.65;;;10.50;55.30;;;;;;2061508;28;20026;-59
2021/03/23 05:55:47;;;;;;;26.92;18.73;;;10.50;55.20;;;;;;2061638;28;20437;-59
2021/03/23 05:57:34;;;;;;;27.30;18.42;;;10.50;55.70;;;;;;2063151;28;20038;-60
2021/03/23 05:59:11;;;;;;;26.92;18.67;;;10.50;55.30;;;;;;2061028;28;20030;-60
2021/03/23 06:00:38;;;;;;;30.15;19.00;;;10.50;55.10;;;;;;2061371;28;20030;-59
2021/03/23 06:02:11;;;;;;;26.55;18.35;;;10.50;55.10;;;;;;2054840;28;20046;-59
2021/03/23 06:03:40;;;;;;;27.98;18.20;;;10.50;55.00;;;;;;2060412;28;20038;-60
2021/03/23 06:05:23;;;;;;;28.73;17.70;;;10.50;55.00;;;;;;2064013;28;21862;-60
2021/03/23 06:06:57;;;;;;;32.47;18.27;;;10.50;55.00;;;;;;2061529;28;20038;-59
2021/03/23 06:08:31;;;;;;;26.00;17.48;;;10.50;55.00;;;;;;2061650;28;20038;-60
2021/03/23 06:09:52;;;;;;;27.13;17.85;;;10.50;54.90;;;;;;2058998;28;20478;-59
2021/03/23 06:11:21;;;;;;;29.27;18.00;;;10.50;54.90;;;;;;2058322;28;20088;-60
2021/03/23 06:13:23;;;;;;;26.23;17.90;;;10.50;54.90;;;;;;2060444;28;20031;-59
2021/03/23 06:14:53;;;;;;;24.63;17.73;;;10.50;54.90;;;;;;2060339;28;20037;-60
2021/03/23 06:16:39;;;;;;;23.05;16.48;;;10.50;54.80;;;;;;2064263;28;20600;-59
2021/03/23 06:18:13;;;;;;;22.95;15.27;;;10.50;54.80;;;;;;2063051;28;20077;-59
2021/03/23 06:20:04;;;;;;;26.65;17.27;;;10.50;54.80;;;;;;2063374;28;20045;-59
2021/03/23 06:21:36;;;;;;;23.20;16.92;;;10.50;54.80;;;;;;2063471;28;20057;-59
2021/03/23 06:23:29;;;;;;;24.27;16.08;;;10.50;54.80;;;;;;2064208;28;20081;-59
2021/03/23 06:25:03;;;;;;;24.58;16.77;;;10.50;54.90;;;;;;2061929;28;20038;-59
2021/03/23 06:26:48;;;;;;;26.50;16.88;;;10.50;54.80;;;;;;2063367;28;20034;-58
2021/03/23 06:28:18;;;;;;;24.02;16.50;;;10.50;54.80;;;;;;2066167;28;20474;-59
2021/03/23 06:29:45;;;;;;;24.25;17.08;;;10.50;54.80;;;;;;2059710;28;20386;-59
2021/03/23 06:31:19;;;;;;;26.52;15.63;;;10.60;54.90;;;;;;2064022;28;20057;-59
2021/03/23 06:33:01;;;;;;;23.95;16.60;;;10.50;54.80;;;;;;2057546;28;20027;-60
2021/03/23 06:34:34;;;;;;;21.77;15.90;;;10.60;54.90;;;;;;2063532;28;20113;-59
2021/03/23 06:36:02;;;;;;;24.17;16.80;;;10.50;54.80;;;;;;2066701;28;20045;-59
2021/03/23 06:37:36;;;;;;;26.05;16.58;;;10.60;54.80;;;;;;2063863;28;20346;-59
2021/03/23 06:38:57;;;;;;;30.45;16.80;;;10.60;54.80;;;;;;2063784;28;20034;-59
2021/03/23 06:40:22;;;;;;;29.20;18.95;;;10.60;54.90;;;;;;2063387;28;20030;-59
2021/03/23 06:41:58;;;;;;;28.38;18.80;;;10.60;54.90;;;;;;2058776;28;20110;-59
2021/03/23 06:43:30;;;;;;;29.02;17.77;;;10.60;54.90;;;;;;2062595;28;20038;-60
2021/03/23 06:45:08;;;;;;;28.45;17.60;;;10.60;54.90;;;;;;2061305;28;20080;-59
2021/03/23 06:46:32;;;;;;;28.00;17.50;;;10.60;54.90;;;;;;2064895;28;20038;-59
2021/03/23 06:47:56;;;;;;;24.58;16.45;;;10.70;54.90;;;;;;2064736;28;20461;-60
2021/03/23 06:49:25;;;;;;;29.08;17.92;;;10.70;54.80;;;;;;2064635;28;20131;-60
2021/03/23 06:50:46;;;;;;;26.05;17.77;;;10.70;54.80;;;;;;2064924;28;20069;-60
2021/03/23 06:52:16;;;;;;;26.30;17.27;;;10.70;54.80;;;;;;2064326;28;20041;-59
2021/03/23 06:53:39;;;;;;;25.30;17.45;;;10.60;54.80;;;;;;2060620;28;20070;-59
2021/03/23 06:55:24;;;;;;;26.77;16.80;;;10.70;54.80;;;;;;2060889;28;20037;-59
2021/03/23 06:56:46;;;;;;;26.42;17.25;;;10.70;54.90;;;;;;2061264;28;20029;-59
2021/03/23 06:58:34;;;;;;;27.48;16.15;;;10.70;54.80;;;;;;2065748;28;20062;-59
2021/03/23 07:00:04;;;;;;;25.23;16.90;;;10.70;54.90;;;;;;2063388;28;20122;-59
2021/03/23 07:01:25;;;;;;;24.75;17.02;;;10.70;54.90;;;;;;2061802;28;20046;-59
2021/03/23 07:02:54;;;;;;;26.67;17.55;;;10.70;54.90;;;;;;2061584;28;20330;-59
2021/03/23 07:04:27;;;;;;;22.35;15.30;;;10.80;54.90;;;;;;2062866;28;20039;-59
2021/03/23 07:05:48;;;;;;;29.95;18.20;;;10.80;54.90;;;;;;2059458;28;20077;-60
2021/03/23 07:07:16;;;;;;;26.45;16.38;;;10.80;54.90;;;;;;2063890;28;20038;-59